Weather observations for the past three days for
Deadhorse, Deadhorse Airport
Imperial (Metric)
Date Time (akdt) Wind (mph) Vis. (mi.) Weather Sky Cond. Temperature (ºF) Relative Humidity Wind Chill (°F) Heat Index (°F) Pressure Precipitation (in)
Air Dwpt 6 hour altimeter (in) sea level (mb) 1 hr 3 hr 6 hr
Max. Min.
10 03:53 NE 23 10.00 Mostly Cloudy and Breezy BKN009 9 6.1 19 9 88% -10 29.9 1012.9
10 02:53 NE 26 6.00 Fog/Mist and Windy FEW008 10 7 87% -10 29.9 1012.8
10 01:53 NE 26 9.00 Fair and Windy CLR 12 9 87% -7 29.91 1012.9
10 00:53 NE 28 G 36 10.00 Fair and Windy CLR 14 10.9 88% -5 29.9 1012.6
09 23:53 NE 28 10.00 Partly Cloudy and Windy SCT036 15.1 12 88% -4 29.9 1012.6
09 22:53 NE 26 10.00 Overcast and Windy OVC019 17.1 14 88% -1 29.9 1012.8
09 21:53 NE 29 2.00 Blowing Snow Fog/Mist and Windy OVC008 19 16 23 19 88% 1 29.91 1012.9
09 20:53 NE 28 2.00 Blowing Snow Fog/Mist and Windy OVC007 19.9 18 92% 3 29.91 1013.1
09 19:53 NE 29 G 36 2.00 Blowing Snow Fog/Mist and Windy OVC007 21.9 19.9 92% 5 29.92 1013.2
09 18:53 NE 30 G 36 7.00 Overcast and Windy OVC008 21.9 19 89% 5 29.92 1013.3
09 17:53 NE 28 7.00 Overcast and Windy OVC008 21.9 19 89% 6 29.92 1013.4
09 16:53 NE 25 G 36 9.00 Overcast and Breezy OVC010 23 19 85% 8 29.94 1013.9
09 15:53 NE 29 10.00 Overcast and Windy OVC010 23 19.9 23 18 88% 7 29.94 1014.2
09 14:53 NE 28 10.00 Overcast and Windy OVC010 21.9 19 89% 6 29.96 1014.6
09 13:53 NE 29 10.00 Overcast and Windy OVC010 21.9 18 85% 5 29.96 1014.9
09 12:53 NE 28 G 35 3.00 Fog/Mist and Windy OVC008 21 18 88% 4 29.97 1015.1
09 11:53 NE 25 2.00 Fog/Mist and Breezy OVC007 19.9 18 92% 3 29.98 1015.5
09 10:53 NE 26 2.00 Fog/Mist and Windy OVC008 19 16 88% 2 29.99 1015.7
09 09:53 NE 24 3.00 Fog/Mist and Breezy SCT008 OVC023 18 16 18 16 92% 1 30 1016.2
09 08:53 NE 24 G 31 1.50 Fog/Mist and Breezy OVC007 18 16 92% 1 30 1016.2
09 07:53 NE 21 4.00 Fog/Mist and Breezy OVC007 17.1 15.1 92% 1 30.02 1016.7
09 06:53 NE 18 4.00 Fog/Mist OVC007 17.1 15.1 92% 2 30.03 1016.9
09 05:53 NE 15 2.00 Fog/Mist OVC005 17.1 15.1 92% 3 30.03 1017.2
09 04:53 NE 14 7.00 Overcast OVC008 16 14 92% 3 30.05 1017.8
09 03:53 NE 14 10.00 Overcast OVC010 17.1 12.9 18 15.1 84% 4 30.06 1018.0
09 02:53 NE 9 10.00 Overcast OVC010 17.1 14 88% 7 30.06 1018.3
09 01:53 NE 10 10.00 Overcast OVC013 16 12.9 88% 5 30.08 1018.8
09 00:53 NE 9 10.00 Overcast OVC015 16 10.9 80% 5 30.09 1019.0
08 23:53 NE 12 10.00 Overcast OVC022 15.1 12.9 91% 3 30.09 1019.1
08 22:53 E 8 4.00 Light Snow Fog/Mist FEW012 OVC023 18 15.1 88% 9 30.09 1019.2
08 21:53 NE 8 1.25 Light Snow Fog/Mist BKN006 OVC016 18 15.1 19 17.1 88% 9 30.09 1019.2
08 20:53 E 6 10.00 Overcast OVC017 18 12.9 81% 11 30.1 1019.4
08 19:53 E 9 5.00 Fog/Mist OVC012 17.1 12 80% 7 30.11 1019.7
08 18:53 E 12 10.00 Overcast BKN014 OVC019 18 12.9 81% 6 30.12 1020.0
08 17:53 E 13 9.00 Overcast OVC015 18 14 84% 6 30.12 1020.2
08 16:53 NE 14 5.00 Light Snow OVC013 18 12.9 81% 5 30.13 1020.5
08 15:53 E 12 3.00 Light Snow BKN010 OVC021 18 12.9 19 18 81% 6 30.14 1020.8
08 14:53 N 10 10.00 Overcast BKN010 OVC021 18 14 84% 7 30.14 1020.9
08 13:53 NE 10 6.00 Fog/Mist OVC010 18 15.1 88% 7 30.16 1021.4
08 12:53 E 8 7.00 Overcast OVC010 18 14 84% 9 30.16 1021.5
08 11:53 E 7 10.00 Overcast OVC011 18 14 84% 10 30.16 1021.7
08 10:53 NE 8 10.00 Overcast OVC010 19 15.1 84% 10 30.17 1021.8
08 09:53 NE 7 10.00 Overcast OVC011 18 15.1 18 18 88% 10 30.18 1022.1
08 08:53 NE 8 9.00 Overcast OVC010 18 15.1 88% 9 30.19 1022.4
08 07:53 NE 8 9.00 Light Snow Fog/Mist OVC010 18 16 92% 9 30.19 1022.6
08 06:53 NW 6 6.00 Light Snow Fog/Mist OVC007 18 16 92% 11 30.2 1022.9
08 05:53 NW 8 3.00 Light Snow Fog/Mist OVC004 18 17.1 96% 9 30.21 1023.2
08 04:53 W 7 2.50 Light Snow Fog/Mist OVC005 18 17.1 96% 10 30.22 1023.5
08 03:53 W 9 9.00 Light Snow OVC008 18 16 19 17.1 92% 8 30.22 1023.6
08 02:53 W 7 9.00 Light Snow OVC010 18 16 92% 10 30.23 1023.8
08 01:53 W 7 9.00 Light Snow OVC011 18 16 92% 10 30.23 1023.8
08 00:53 SW 7 9.00 Light Snow OVC011 17.1 15.1 92% 8 30.23 1024.0
07 23:53 SW 9 9.00 Light Snow OVC012 17.1 15.1 92% 7 30.24 1024.2
07 22:53 SW 7 10.00 Light Snow OVC011 18 15.1 88% 10 30.24 1024.2
07 21:53 SW 5 10.00 Overcast OVC011 19 15.1 19.9 19 84% 13 30.24 1024.2
07 20:53 W 7 10.00 Overcast OVC010 19 15.1 84% 11 30.25 1024.5
07 19:53 W 7 10.00 Overcast OVC010 19 16 88% 11 30.25 1024.5
07 18:53 W 6 10.00 Overcast OVC010 19 15.1 84% 12 30.25 1024.6
07 17:53 W 8 10.00 Overcast OVC010 19.9 16 85% 11 30.25 1024.6
07 16:53 W 5 10.00 Overcast OVC010 19 16 88% 13 30.25 1024.5
07 15:53 W 9 10.00 Overcast OVC010 19 15.1 19 18 84% 9 30.25 1024.4
07 14:53 W 9 10.00 Overcast OVC010 19 15.1 84% 9 30.24 1024.3
07 13:53 W 12 10.00 Overcast OVC008 18 15.1 88% 6 30.24 1024.1
07 12:53 W 9 10.00 Overcast OVC007 18 15.1 88% 8 30.23 1023.9
07 11:53 W 12 10.00 Overcast OVC007 18 16 92% 6 30.22 1023.5
07 10:53 W 7 10.00 Overcast OVC007 18 16 92% 10 30.21 1023.2
07 09:53 W 8 10.00 Overcast OVC008 19 16 21.9 19 88% 10 30.2 1022.9
07 08:53 W 9 10.00 Overcast OVC010 19.9 16 85% 10 30.19 1022.4
07 07:53 NW 10 10.00 Overcast OVC011 19.9 17.1 89% 9 30.18 1022.0
07 06:53 NW 10 10.00 Overcast OVC011 21 17.1 85% 11 30.16 1021.5
07 05:53 W 8 10.00 Overcast OVC011 21 18 88% 12 30.14 1020.9
07 04:53 W 8 10.00 Overcast OVC014 21.9 18 85% 13 30.13 1020.5
Date Time (akdt) Wind (mph) Vis. (mi.) Weather Sky Cond. Air Dwpt Max. Min. Relative Humidity Wind Chill (°F) Heat Index (°F) altimeter (in) sea level (mb) 1 hr 3 hr 6 hr
6 hour
Temperature (ºF) Pressure Precipitation (in)